Gregory, Michigan
Current Conditions -  °F | °C
As of 3:55 PM on Saturday 25 Oct 2014 (Local Time) from KOZW Reporting Station
Clear Clear  
Wind Chill: 66°   Ceiling: Unl
Heat Index: 66°   Visibility: 10mi
Dew Point: 37°   Wind: 17mph
Humidity: 35%   Direction: 270°W
Pressure: 29.75"   Gusts: 28mph
Location:  42.46°N, 84.08°W
Report Text: KOZW 251955Z AUTO 27015G24KT 10SM CLR 19/03 A2975 RMK AO2 T01870027
Loading
Personal Weather Stations






























Interactive Weather Map
Tropical Storm Tracking
New forecast layout! Learn more

10-Day Weather Forecast

Advertisements
Track Severe Weather on mobile